Latest Weather Observations for Nowra

IDN60901

Issued at 7:51 pm EDT Tuesday 10 December 2019 (issued every 10 minutes, with the page automatically refreshed every 10 minutes)

About weather observations | Map of Canberra area stations | Latest observations for Canberra area | Other Formats
Station Details ID: 068072 Name: NOWRA RAN AIR STATION AWS Lat: -34.95 Lon: 150.54 Height: 109.0 m
Data from the previous 72 hours. | See also: Recent months at Nowra
Date/Time
EDT
Temp
°C
App
Temp
°C
Dew
Point
°C
Rel
Hum
%
Delta-T
°C
Wind Press
QNH
hPa
Press
MSL
hPa
Rain since
9am
mm
Dir  Spd
km/h
Gust
km/h
Spd
kts
Gust
kts
10/07:30pm 18.6 14.8 13.7 73 2.8 SSE 26 37 14 20 1016.4 1016.0 0.0
10/07:00pm 19.2 15.0 13.4 69 3.3 S 28 41 15 22 1015.7 1015.3 0.0
10/06:30pm 20.1 16.7 13.8 67 3.6 S 24 35 13 19 1015.2 1014.8 0.0
10/06:00pm 20.8 16.2 13.5 63 4.2 SSE 30 41 16 22 1014.5 1014.1 0.0
10/05:30pm 21.7 17.4 13.1 58 4.9 SSE 28 41 15 22 1014.2 1013.8 0.0
10/05:00pm 23.0 18.7 13.2 54 5.7 SSE 28 41 15 22 1014.0 1013.6 0.0
10/04:30pm 22.7 18.2 12.6 53 5.8 SSE 28 39 15 21 1013.8 1013.4 0.0
10/04:00pm 23.5 18.2 12.5 50 6.3 S 32 41 17 22 1013.3 1012.9 0.0
10/03:30pm 23.5 18.6 11.2 46 6.9 SSE 28 39 15 21 1013.0 1012.6 0.0
10/03:00pm 25.3 20.0 12.5 45 7.4 SSE 32 46 17 25 1012.6 1012.3 0.0
10/02:30pm 25.5 20.4 13.0 46 7.3 SSE 32 44 17 24 1012.4 1012.1 0.0
10/02:00pm 27.4 22.5 12.6 40 8.7 SE 30 39 16 21 1012.2 1011.9 0.0
10/01:30pm 27.1 22.7 11.6 38 8.9 SE 26 33 14 18 1012.2 1011.9 0.0
10/01:00pm 27.3 22.8 12.5 40 8.6 SSE 28 37 15 20 1012.5 1012.2 0.0
10/12:30pm 26.9 21.8 11.8 39 8.7 SSE 30 43 16 23 1012.5 1012.2 0.0
10/12:00pm 26.9 24.6 17.7 57 5.8 SE 26 33 14 18 1012.6 1012.3 0.0
10/11:30am 26.7 24.2 18.0 59 5.5 SE 28 39 15 21 1012.5 1012.2 0.0
10/11:00am 26.2 24.4 17.8 60 5.3 SE 24 32 13 17 1012.4 1012.1 0.0
10/10:50am 27.1 25.4 18.1 58 5.7 SE 24 33 13 18 1012.5 1012.2 0.0
10/10:30am 26.8 24.0 17.3 56 6.0 SSE 28 33 15 18 1012.2 1011.9 0.0
10/10:28am 27.2 24.4 17.4 55 6.2 SSE 28 33 15 18 1012.2 1011.9 0.0
10/10:00am 30.5 28.6 15.8 41 9.2 SE 20 32 11 17 1011.7 1011.4 0.0
10/09:30am 29.1 29.1 14.1 40 9.1 NNE 7 13 4 7 1011.3 1011.0 0.0
10/09:00am 26.8 26.5 15.5 50 6.9 N 11 17 6 9 1011.3 1011.0 0.0
10/08:30am 24.7 24.2 14.8 54 5.9 N 11 15 6 8 1011.6 1011.3 0.0
10/08:00am 22.3 22.4 16.6 70 3.5 NNW 11 15 6 8 1011.7 1011.4 0.0
10/07:30am 19.4 20.2 18.2 93 0.7 NNW 11 15 6 8 1011.8 1011.5 0.0
10/07:00am 17.8 19.2 17.8 100 0.0 NNW 7 9 4 5 1011.8 1011.5 0.0
10/06:30am 16.8 18.7 16.8 100 0.0 WNW 2 11 1 6 1011.8 1011.5 0.0
10/06:06am 15.8 17.7 15.8 100 0.0 CALM 0 0 0 0 1011.8 1011.5 0.0
10/06:00am 15.2 16.9 15.2 100 0.0 CALM 0 0 0 0 1011.8 1011.5 0.0
10/05:30am 15.0 16.6 15.0 100 0.0 CALM 0 0 0 0 1011.7 1011.4 0.0
10/05:00am 15.3 17.0 15.3 100 0.0 CALM 0 0 0 0 1011.7 1011.4 0.0
10/04:30am 14.9 16.5 14.9 100 0.0 CALM 0 0 0 0 1011.7 1011.4 0.0
10/04:00am 15.2 16.9 15.2 100 0.0 CALM 0 0 0 0 1011.8 1011.5 0.0
10/03:30am 15.6 17.4 15.6 100 0.0 CALM 0 0 0 0 1012.1 1011.8 0.0
10/03:00am 16.4 18.6 16.4 100 0.0 CALM 0 0 0 0 1012.5 1012.2 0.0
10/02:30am 16.1 18.1 16.1 100 0.0 CALM 0 0 0 0 1013.0 1012.6 0.0
10/02:00am 16.1 17.3 15.9 99 0.1 SSW 4 7 2 4 1013.4 1013.0 0.0
10/01:30am 16.7 17.6 16.7 100 0.0 SSW 7 9 4 5 1013.7 1013.3 0.0
10/01:00am 17.2 18.0 17.2 100 0.0 SSW 9 11 5 6 1014.0 1013.6 0.0
10/12:30am 17.7 18.7 17.7 100 0.0 SSW 9 11 5 6 1014.4 1014.0 0.0
10/12:00am 17.8 18.7 17.6 99 0.1 SSW 9 11 5 6 1014.7 1014.3 0.0
 
Date/Time
EDT
Temp
°C
App
Temp
°C
Dew
Point
°C
Rel
Hum
%
Delta-T
°C
Wind Press
QNH
hPa
Press
MSL
hPa
Rain since
9am
mm
Dir  Spd
km/h
Gust
km/h
Spd
kts
Gust
kts
09/11:30pm 18.0 20.4 16.9 93 0.7 CALM 0 0 0 0 1014.8 1014.4 0.0
09/11:00pm 19.0 21.7 17.8 93 0.7 CALM 0 0 0 0 1014.8 1014.4 0.0
09/10:30pm 18.8 21.2 17.1 90 1.0 CALM 0 0 0 0 1015.0 1014.6 0.0
09/10:00pm 19.2 21.0 17.3 89 1.2 S 4 7 2 4 1015.0 1014.6 0.0
09/09:30pm 19.5 21.0 17.5 88 1.2 S 6 9 3 5 1014.9 1014.5 0.0
09/09:00pm 20.5 21.9 17.7 84 1.7 SE 7 9 4 5 1014.7 1014.3 0.0
09/08:30pm 21.1 22.1 17.7 81 2.1 SSE 9 11 5 6 1014.5 1014.1 0.0
09/08:00pm 21.7 22.7 17.7 78 2.5 SE 9 11 5 6 1014.3 1013.9 0.0
09/07:30pm 22.8 23.3 17.5 72 3.3 ESE 11 13 6 7 1014.0 1013.6 0.0
09/07:00pm 23.8 23.8 17.3 67 4.0 ESE 13 17 7 9 1013.9 1013.5 0.0
09/06:30pm 25.0 25.0 17.2 62 4.9 ENE 13 17 7 9 1013.5 1013.1 0.0
09/06:00pm 25.7 25.5 17.6 61 5.1 E 15 20 8 11 1013.5 1013.1 0.0
09/05:30pm 26.3 26.0 17.4 58 5.6 ENE 15 24 8 13 1013.4 1013.0 0.0
09/05:00pm 26.4 25.3 17.2 57 5.8 E 19 28 10 15 1013.4 1013.0 0.0
09/04:30pm 26.9 25.5 17.1 55 6.1 E 20 26 11 14 1013.6 1013.2 0.0
09/04:00pm 27.7 24.6 16.6 50 6.9 ENE 28 35 15 19 1013.7 1013.3 0.0
09/03:30pm 28.3 25.4 16.2 47 7.5 NE 26 33 14 18 1014.1 1013.7 0.0
09/03:00pm 28.6 26.1 17.2 50 7.2 ENE 26 33 14 18 1014.7 1014.3 0.0
09/02:30pm 27.9 25.5 17.4 52 6.6 ENE 26 33 14 18 1015.3 1014.9 0.0
09/02:00pm 27.9 24.6 17.1 51 6.8 ENE 30 37 16 20 1015.7 1015.3 0.0
09/01:30pm 28.1 24.5 17.3 52 6.8 ENE 32 37 17 20 1016.1 1015.7 0.0
09/01:00pm 28.8 26.5 17.7 51 7.1 ENE 26 39 14 21 1016.8 1016.4 0.0
09/12:30pm 29.2 27.1 15.3 42 8.5 NE 20 37 11 20 1017.3 1017.0 0.0
09/12:00pm 27.9 25.9 13.8 42 8.4 NNE 17 28 9 15 1017.9 1017.6 0.0
09/11:30am 27.3 25.1 14.3 45 7.8 NE 19 26 10 14 1018.6 1018.3 0.0
09/11:00am 26.4 24.0 13.9 46 7.4 NNE 19 28 10 15 1019.0 1018.7 0.0
09/10:30am 25.5 23.0 14.0 49 6.8 NNE 20 30 11 16 1019.4 1019.1 0.0
09/10:00am 24.8 22.4 13.7 50 6.5 N 19 35 10 19 1019.8 1019.5 0.0
09/09:30am 24.1 21.6 14.2 54 5.9 N 20 26 11 14 1020.2 1019.9 0.0
09/09:00am 22.8 20.9 14.1 58 5.1 N 17 28 9 15 1020.6 1020.3 0.0
09/08:30am 23.0 20.9 14.8 60 4.9 N 19 28 10 15 1020.8 1020.5 0.0
09/08:00am 21.5 20.9 15.6 69 3.5 NNE 13 17 7 9 1020.9 1020.6 0.0
09/07:30am 20.8 19.9 15.8 73 3.0 NNE 15 19 8 10 1021.0 1020.7 0.0
09/07:00am 20.5 20.4 15.9 75 2.8 NNE 11 17 6 9 1021.1 1020.8 0.0
09/06:30am 20.0 19.5 15.8 77 2.5 NE 13 17 7 9 1020.9 1020.6 0.0
09/06:00am 19.7 19.9 15.8 78 2.3 NE 9 11 5 6 1020.9 1020.6 0.0
09/05:30am 19.7 19.5 15.8 78 2.3 NE 11 15 6 8 1020.6 1020.3 0.0
09/05:00am 19.7 19.2 15.8 78 2.3 NE 13 17 7 9 1020.5 1020.2 0.0
09/04:30am 19.6 19.4 15.7 78 2.3 NE 11 15 6 8 1020.4 1020.1 0.0
09/04:00am 19.4 20.0 15.7 79 2.2 NE 7 11 4 6 1020.3 1020.0 0.0
09/03:30am 19.4 19.7 15.9 80 2.1 NE 9 11 5 6 1020.5 1020.2 0.0
09/03:00am 18.6 18.4 15.7 83 1.7 NE 11 13 6 7 1020.6 1020.3 0.0
09/02:30am 19.2 18.7 15.9 81 2.0 NE 13 15 7 8 1020.8 1020.5 0.0
09/02:00am 19.1 19.0 16.1 83 1.8 NE 11 13 6 7 1020.9 1020.6 0.0
09/01:30am 18.5 17.9 15.6 83 1.7 NE 13 15 7 8 1021.1 1020.8 0.0
09/01:00am 19.3 18.7 15.6 79 2.2 NE 13 15 7 8 1021.4 1021.1 0.0
09/12:30am 19.9 19.7 15.7 77 2.5 NNE 11 13 6 7 1021.7 1021.4 0.0
09/12:00am 19.9 19.7 15.7 77 2.5 NE 11 15 6 8 1021.7 1021.4 0.0
 
Date/Time
EDT
Temp
°C
App
Temp
°C
Dew
Point
°C
Rel
Hum
%
Delta-T
°C
Wind Press
QNH
hPa
Press
MSL
hPa
Rain since
9am
mm
Dir  Spd
km/h
Gust
km/h
Spd
kts
Gust
kts
08/11:30pm 20.0 18.5 15.4 75 2.7 NE 17 22 9 12 1021.8 1021.5 0.0
08/11:00pm 20.1 19.0 15.3 74 2.8 NE 15 20 8 11 1021.8 1021.5 0.0
08/10:30pm 20.1 18.9 15.1 73 3.0 NE 15 20 8 11 1021.8 1021.5 0.0
08/10:00pm 20.1 18.5 15.1 73 2.9 NE 17 20 9 11 1021.8 1021.5 0.0
08/09:30pm 20.1 18.5 14.9 72 3.1 NE 17 20 9 11 1021.4 1021.1 0.0
08/09:00pm 19.9 18.6 14.9 73 2.9 ENE 15 22 8 12 1021.1 1020.8 0.0
08/08:30pm 19.9 18.5 15.5 76 2.6 ENE 17 20 9 11 1020.9 1020.6 0.0
08/08:00pm 19.7 17.9 15.4 76 2.5 ENE 19 24 10 13 1020.5 1020.2 0.0
08/07:30pm 20.1 17.2 15.1 73 3.0 ENE 24 33 13 18 1020.0 1019.7 0.0
08/07:00pm 20.5 16.7 14.8 70 3.3 E 28 35 15 19 1019.5 1019.2 0.0
08/06:30pm 21.0 17.5 14.4 66 3.9 ENE 26 33 14 18 1019.1 1018.8 0.0
08/06:00pm 21.7 17.8 14.4 63 4.3 ENE 28 37 15 20 1018.8 1018.5 0.0
08/05:30pm 22.3 18.3 14.2 60 4.8 ENE 28 41 15 22 1018.6 1018.3 0.0
08/05:00pm 22.5 18.4 13.8 58 5.1 ENE 28 39 15 21 1018.7 1018.4 0.0
08/04:30pm 23.5 19.8 13.9 55 5.6 ENE 26 37 14 20 1018.7 1018.4 0.0
08/04:00pm 23.6 19.2 14.0 55 5.6 E 30 37 16 20 1018.7 1018.4 0.0
08/03:30pm 23.3 19.1 13.5 54 5.7 ENE 28 41 15 22 1018.8 1018.5 0.0
08/03:00pm 24.3 20.3 14.1 53 6.0 ENE 28 39 15 21 1018.8 1018.5 0.0
08/02:30pm 24.7 20.8 13.3 49 6.7 E 26 33 14 18 1019.1 1018.8 0.0
08/02:00pm 25.4 21.8 14.2 50 6.7 ENE 26 35 14 19 1018.9 1018.6 0.0
08/01:30pm 24.9 20.4 13.8 50 6.6 ENE 30 37 16 20 1018.8 1018.5 0.0
08/01:00pm 25.0 20.8 13.5 48 6.7 E 28 39 15 21 1018.9 1018.6 0.0
08/12:30pm 24.5 21.1 13.7 51 6.4 ENE 24 37 13 20 1018.8 1018.5 0.0
08/12:00pm 25.1 21.7 13.6 49 6.8 ENE 24 37 13 20 1018.9 1018.6 0.0
08/11:30am 24.4 21.4 12.7 48 6.8 ENE 20 32 11 17 1019.1 1018.8 0.0
08/11:00am 24.2 21.9 13.1 50 6.4 ENE 17 24 9 13 1019.0 1018.7 0.0
08/10:30am 23.4 21.7 11.1 46 6.9 ENE 11 22 6 12 1018.9 1018.6 0.0
08/10:00am 22.5 20.6 11.9 51 6.0 NNW 13 20 7 11 1018.9 1018.6 0.0
08/09:30am 22.4 20.7 12.6 54 5.6 N 13 20 7 11 1019.0 1018.7 0.0
08/09:00am 21.6 19.5 12.5 56 5.2 N 15 20 8 11 1019.0 1018.7 0.0
08/08:30am 20.8 19.0 12.2 58 4.8 N 13 20 7 11 1018.9 1018.6 0.0
08/08:00am 19.9 17.9 12.7 63 4.1 N 15 20 8 11 1018.7 1018.4 0.0
08/07:30am 18.8 17.0 12.1 65 3.7 N 13 17 7 9 1018.6 1018.3 0.0
08/07:00am 17.8 16.7 11.8 68 3.3 N 9 13 5 7 1018.7 1018.4 0.0
08/06:30am 17.1 17.7 12.0 72 2.8 CALM 0 0 0 0 1018.4 1018.1 0.0
08/06:00am 16.6 17.3 12.2 75 2.4 CALM 0 0 0 0 1017.9 1017.6 0.0
08/05:30am 16.5 15.8 11.9 74 2.5 NE 7 9 4 5 1017.5 1017.2 0.0
08/05:00am 17.3 16.3 12.2 72 2.8 NE 9 11 5 6 1017.4 1017.1 0.0
08/04:30am 17.6 17.4 13.5 77 2.3 ESE 7 9 4 5 1017.2 1016.8 0.0
08/04:00am 17.6 17.8 14.3 81 1.9 SE 6 9 3 5 1017.0 1016.6 0.0
08/03:30am 17.6 17.3 14.3 81 1.9 SE 9 11 5 6 1016.9 1016.5 0.0
08/03:00am 18.0 17.6 14.1 78 2.2 E 9 11 5 6 1017.0 1016.6 0.0
08/02:30am 17.9 18.2 14.6 81 1.9 SE 6 9 3 5 1017.1 1016.7 0.0
08/02:00am 18.1 18.2 15.4 84 1.6 ENE 9 15 5 8 1017.2 1016.8 0.0
08/01:48am 17.9 18.6 15.5 86 1.4 ENE 6 15 3 8 1017.2 1016.8 0.0
08/01:30am 17.7 19.1 15.5 87 1.3 ESE 2 7 1 4 1017.4 1017.1 0.0
08/01:00am 17.6 19.1 15.6 88 1.2 SE 2 7 1 4 1017.4 1017.1 0.0
08/12:30am 17.8 18.1 15.1 84 1.6 SE 7 11 4 6 1017.4 1017.1 0.0
08/12:00am 17.8 18.1 15.1 84 1.6 ESE 7 9 4 5 1017.6 1017.3 0.0
 
Date/Time
EDT
Temp
°C
App
Temp
°C
Dew
Point
°C
Rel
Hum
%
Delta-T
°C
Wind Press
QNH
hPa
Press
MSL
hPa
Rain since
9am
mm
Dir  Spd
km/h
Gust
km/h
Spd
kts
Gust
kts
07/11:30pm 17.8 17.8 15.1 84 1.6 ESE 9 13 5 7 1017.7 1017.4 0.0
07/11:04pm 17.7 18.0 15.0 84 1.6 E 7 11 4 6 1017.4 1017.1 0.0
07/11:00pm 17.7 18.0 15.0 84 1.6 E 7 11 4 6 1017.4 1017.1 0.0
07/10:33pm 17.7 17.2 15.0 84 1.6 ESE 11 15 6 8 1017.1 1016.7 0.0
07/10:30pm 17.8 17.4 15.1 84 1.6 E 11 15 6 8 1017.1 1016.7 0.0
07/10:02pm 17.7 16.9 15.0 84 1.6 ESE 13 17 7 9 1017.1 1016.7 0.0
07/10:00pm 17.8 17.0 15.1 84 1.6 ESE 13 20 7 11 1017.1 1016.7 0.0
07/09:30pm 17.9 16.3 15.0 83 1.7 ESE 17 24 9 13 1016.7 1016.3 0.0
07/09:00pm 18.0 16.8 15.1 83 1.7 ESE 15 17 8 9 1016.1 1015.7 0.0
07/08:30pm 18.1 15.5 15.0 82 1.8 SE 22 28 12 15 1015.7 1015.3 0.0
07/08:00pm 18.6 16.6 15.5 82 1.8 ESE 20 30 11 16 1015.3 1014.9 0.0
07/07:56pm 18.7 16.4 15.6 82 1.8 SE 22 33 12 18 1015.1 1014.7 0.0

Latest Capital City Observations: Canberra | Sydney | Melbourne | Brisbane | Adelaide | Perth | Hobart | Darwin

Other formats

Comma delimited format used in spreadsheet applications
http://www.bom.gov.au/fwo/IDN60903/IDN60903.94750.axf

JavaScript Object Notation format (JSON) in row-major order
http://www.bom.gov.au/fwo/IDN60903/IDN60903.94750.json

Data quality

Most of these data are generated automatically and are frequently updated. Quality checks on data are not normally performed. It is possible for incorrect values to appear. Refer to information at About Latest Weather Observations and please check the disclaimer before using these data.